sensor_id;sensor_type;location;lat;lon;timestamp;P1;durP1;ratioP1;P2;durP2;ratioP2
18194;SDS011;9223;50.988;3.162;2024-03-06T00:05:09;15.73;;;12.32;;
18194;SDS011;9223;50.988;3.162;2024-03-06T00:11:12;15.38;;;12.60;;
18194;SDS011;9223;50.988;3.162;2024-03-06T00:17:18;18.45;;;13.63;;
18194;SDS011;9223;50.988;3.162;2024-03-06T00:23:21;16.55;;;13.27;;
18194;SDS011;9223;50.988;3.162;2024-03-06T00:29:25;15.68;;;12.85;;
18194;SDS011;9223;50.988;3.162;2024-03-06T00:35:33;15.75;;;13.05;;
18194;SDS011;9223;50.988;3.162;2024-03-06T00:41:36;14.68;;;11.25;;
18194;SDS011;9223;50.988;3.162;2024-03-06T00:47:40;20.85;;;13.38;;
18194;SDS011;9223;50.988;3.162;2024-03-06T00:53:46;17.20;;;10.82;;
18194;SDS011;9223;50.988;3.162;2024-03-06T00:59:49;13.30;;;10.20;;
18194;SDS011;9223;50.988;3.162;2024-03-06T01:05:53;11.55;;;10.13;;
18194;SDS011;9223;50.988;3.162;2024-03-06T01:11:57;10.95;;;9.55;;
18194;SDS011;9223;50.988;3.162;2024-03-06T01:18:01;12.30;;;9.27;;
18194;SDS011;9223;50.988;3.162;2024-03-06T01:24:06;10.55;;;8.90;;
18194;SDS011;9223;50.988;3.162;2024-03-06T01:30:11;11.82;;;8.88;;
18194;SDS011;9223;50.988;3.162;2024-03-06T01:36:14;9.38;;;7.97;;
18194;SDS011;9223;50.988;3.162;2024-03-06T01:42:18;11.50;;;8.85;;
18194;SDS011;9223;50.988;3.162;2024-03-06T01:48:23;9.57;;;8.25;;
18194;SDS011;9223;50.988;3.162;2024-03-06T01:54:27;10.73;;;8.23;;
18194;SDS011;9223;50.988;3.162;2024-03-06T02:00:32;11.75;;;8.00;;
18194;SDS011;9223;50.988;3.162;2024-03-06T02:06:37;12.45;;;7.95;;
18194;SDS011;9223;50.988;3.162;2024-03-06T02:12:41;9.13;;;7.97;;
18194;SDS011;9223;50.988;3.162;2024-03-06T02:18:51;11.82;;;8.60;;
18194;SDS011;9223;50.988;3.162;2024-03-06T02:24:56;9.45;;;7.40;;
18194;SDS011;9223;50.988;3.162;2024-03-06T02:31:00;9.43;;;8.02;;
18194;SDS011;9223;50.988;3.162;2024-03-06T02:37:05;10.20;;;8.70;;
18194;SDS011;9223;50.988;3.162;2024-03-06T02:43:10;11.02;;;8.10;;
18194;SDS011;9223;50.988;3.162;2024-03-06T02:49:13;10.77;;;8.02;;
18194;SDS011;9223;50.988;3.162;2024-03-06T02:55:17;10.75;;;8.75;;
18194;SDS011;9223;50.988;3.162;2024-03-06T03:01:22;10.85;;;9.05;;
18194;SDS011;9223;50.988;3.162;2024-03-06T03:07:26;11.05;;;8.65;;
18194;SDS011;9223;50.988;3.162;2024-03-06T03:13:30;10.00;;;7.65;;
18194;SDS011;9223;50.988;3.162;2024-03-06T03:19:35;10.98;;;7.88;;
18194;SDS011;9223;50.988;3.162;2024-03-06T03:25:42;11.77;;;8.50;;
18194;SDS011;9223;50.988;3.162;2024-03-06T03:31:46;17.45;;;11.40;;
18194;SDS011;9223;50.988;3.162;2024-03-06T03:37:51;18.85;;;11.18;;
18194;SDS011;9223;50.988;3.162;2024-03-06T03:43:55;19.42;;;12.63;;
18194;SDS011;9223;50.988;3.162;2024-03-06T03:49:59;22.17;;;14.18;;
18194;SDS011;9223;50.988;3.162;2024-03-06T03:56:12;22.20;;;13.63;;
18194;SDS011;9223;50.988;3.162;2024-03-06T04:02:16;22.38;;;14.15;;
18194;SDS011;9223;50.988;3.162;2024-03-06T04:08:20;23.63;;;15.65;;
18194;SDS011;9223;50.988;3.162;2024-03-06T04:14:25;22.70;;;15.57;;
18194;SDS011;9223;50.988;3.162;2024-03-06T04:20:28;23.85;;;16.05;;
18194;SDS011;9223;50.988;3.162;2024-03-06T04:26:32;26.15;;;15.82;;
18194;SDS011;9223;50.988;3.162;2024-03-06T04:32:37;23.45;;;14.93;;
18194;SDS011;9223;50.988;3.162;2024-03-06T04:38:41;24.33;;;16.10;;
18194;SDS011;9223;50.988;3.162;2024-03-06T04:44:45;25.65;;;16.15;;
18194;SDS011;9223;50.988;3.162;2024-03-06T04:50:50;26.30;;;16.70;;
18194;SDS011;9223;50.988;3.162;2024-03-06T04:56:54;26.33;;;16.63;;
18194;SDS011;9223;50.988;3.162;2024-03-06T05:02:58;27.02;;;17.00;;
18194;SDS011;9223;50.988;3.162;2024-03-06T05:09:20;27.95;;;17.00;;
18194;SDS011;9223;50.988;3.162;2024-03-06T05:15:41;25.98;;;16.70;;
18194;SDS011;9223;50.988;3.162;2024-03-06T05:22:02;26.48;;;16.55;;
18194;SDS011;9223;50.988;3.162;2024-03-06T05:28:25;26.08;;;16.70;;
18194;SDS011;9223;50.988;3.162;2024-03-06T05:34:47;28.38;;;16.73;;
18194;SDS011;9223;50.988;3.162;2024-03-06T05:41:09;26.85;;;16.33;;
18194;SDS011;9223;50.988;3.162;2024-03-06T05:47:31;27.63;;;16.08;;
18194;SDS011;9223;50.988;3.162;2024-03-06T05:53:52;23.65;;;15.82;;
18194;SDS011;9223;50.988;3.162;2024-03-06T06:00:13;25.67;;;14.75;;
18194;SDS011;9223;50.988;3.162;2024-03-06T06:06:21;27.48;;;16.60;;
18194;SDS011;9223;50.988;3.162;2024-03-06T06:12:24;27.48;;;17.40;;
18194;SDS011;9223;50.988;3.162;2024-03-06T06:18:28;28.23;;;16.65;;
18194;SDS011;9223;50.988;3.162;2024-03-06T06:24:34;25.60;;;16.70;;
18194;SDS011;9223;50.988;3.162;2024-03-06T06:30:47;24.15;;;15.18;;
18194;SDS011;9223;50.988;3.162;2024-03-06T06:36:52;25.95;;;16.38;;
18194;SDS011;9223;50.988;3.162;2024-03-06T06:42:57;27.98;;;17.10;;
18194;SDS011;9223;50.988;3.162;2024-03-06T06:49:01;28.23;;;16.90;;
18194;SDS011;9223;50.988;3.162;2024-03-06T06:55:05;33.08;;;17.92;;
18194;SDS011;9223;50.988;3.162;2024-03-06T07:01:12;30.05;;;17.80;;
18194;SDS011;9223;50.988;3.162;2024-03-06T07:07:18;30.42;;;18.60;;
18194;SDS011;9223;50.988;3.162;2024-03-06T07:13:23;29.67;;;18.48;;
18194;SDS011;9223;50.988;3.162;2024-03-06T07:19:28;27.85;;;16.10;;
18194;SDS011;9223;50.988;3.162;2024-03-06T07:25:32;34.70;;;18.25;;
18194;SDS011;9223;50.988;3.162;2024-03-06T07:31:36;34.20;;;18.50;;
18194;SDS011;9223;50.988;3.162;2024-03-06T07:37:41;40.50;;;20.98;;
18194;SDS011;9223;50.988;3.162;2024-03-06T07:43:46;39.67;;;20.73;;
18194;SDS011;9223;50.988;3.162;2024-03-06T07:49:50;44.13;;;20.63;;
18194;SDS011;9223;50.988;3.162;2024-03-06T07:55:55;39.60;;;20.65;;
18194;SDS011;9223;50.988;3.162;2024-03-06T08:01:58;37.67;;;19.88;;
18194;SDS011;9223;50.988;3.162;2024-03-06T08:08:03;36.95;;;22.20;;
18194;SDS011;9223;50.988;3.162;2024-03-06T08:14:08;33.33;;;19.92;;
18194;SDS011;9223;50.988;3.162;2024-03-06T08:20:12;37.20;;;21.02;;
18194;SDS011;9223;50.988;3.162;2024-03-06T08:26:16;39.15;;;22.02;;
18194;SDS011;9223;50.988;3.162;2024-03-06T08:32:21;37.90;;;22.58;;
18194;SDS011;9223;50.988;3.162;2024-03-06T08:38:25;36.28;;;21.45;;
18194;SDS011;9223;50.988;3.162;2024-03-06T08:44:29;38.15;;;22.75;;
18194;SDS011;9223;50.988;3.162;2024-03-06T08:50:34;35.35;;;22.00;;
18194;SDS011;9223;50.988;3.162;2024-03-06T08:56:37;35.47;;;22.02;;
18194;SDS011;9223;50.988;3.162;2024-03-06T09:02:41;30.77;;;20.73;;
18194;SDS011;9223;50.988;3.162;2024-03-06T09:08:46;26.05;;;18.58;;
18194;SDS011;9223;50.988;3.162;2024-03-06T09:14:50;23.85;;;20.52;;
18194;SDS011;9223;50.988;3.162;2024-03-06T09:20:54;27.40;;;19.50;;
18194;SDS011;9223;50.988;3.162;2024-03-06T09:26:59;23.80;;;18.15;;
18194;SDS011;9223;50.988;3.162;2024-03-06T09:33:03;25.83;;;17.52;;
18194;SDS011;9223;50.988;3.162;2024-03-06T09:39:07;26.42;;;18.90;;
18194;SDS011;9223;50.988;3.162;2024-03-06T09:45:13;27.67;;;19.90;;
18194;SDS011;9223;50.988;3.162;2024-03-06T09:51:17;33.07;;;25.47;;
18194;SDS011;9223;50.988;3.162;2024-03-06T09:57:22;28.88;;;20.92;;
18194;SDS011;9223;50.988;3.162;2024-03-06T10:03:28;26.88;;;19.27;;
18194;SDS011;9223;50.988;3.162;2024-03-06T10:09:31;23.25;;;17.75;;
18194;SDS011;9223;50.988;3.162;2024-03-06T10:15:35;22.42;;;17.02;;
18194;SDS011;9223;50.988;3.162;2024-03-06T10:21:40;23.48;;;16.15;;
18194;SDS011;9223;50.988;3.162;2024-03-06T10:27:46;19.00;;;13.82;;
18194;SDS011;9223;50.988;3.162;2024-03-06T10:33:51;21.15;;;15.48;;
18194;SDS011;9223;50.988;3.162;2024-03-06T10:40:01;17.65;;;12.32;;
18194;SDS011;9223;50.988;3.162;2024-03-06T10:46:08;14.95;;;9.88;;
18194;SDS011;9223;50.988;3.162;2024-03-06T10:52:14;15.23;;;10.68;;
18194;SDS011;9223;50.988;3.162;2024-03-06T10:58:21;14.93;;;10.18;;
18194;SDS011;9223;50.988;3.162;2024-03-06T11:04:25;11.60;;;8.65;;
18194;SDS011;9223;50.988;3.162;2024-03-06T11:10:30;10.57;;;7.75;;
18194;SDS011;9223;50.988;3.162;2024-03-06T11:16:55;11.25;;;8.07;;
18194;SDS011;9223;50.988;3.162;2024-03-06T11:23:02;10.90;;;7.85;;
18194;SDS011;9223;50.988;3.162;2024-03-06T11:29:11;6.45;;;4.47;;
18194;SDS011;9223;50.988;3.162;2024-03-06T11:35:18;8.50;;;6.18;;
18194;SDS011;9223;50.988;3.162;2024-03-06T11:41:24;8.63;;;7.20;;
18194;SDS011;9223;50.988;3.162;2024-03-06T11:47:29;9.45;;;6.70;;
18194;SDS011;9223;50.988;3.162;2024-03-06T11:53:35;10.93;;;7.22;;
18194;SDS011;9223;50.988;3.162;2024-03-06T11:59:43;8.27;;;6.57;;
18194;SDS011;9223;50.988;3.162;2024-03-06T12:05:46;12.93;;;9.05;;
18194;SDS011;9223;50.988;3.162;2024-03-06T12:11:55;9.27;;;7.20;;
18194;SDS011;9223;50.988;3.162;2024-03-06T12:17:59;8.93;;;6.82;;
18194;SDS011;9223;50.988;3.162;2024-03-06T12:24:04;9.73;;;7.30;;
18194;SDS011;9223;50.988;3.162;2024-03-06T12:30:11;11.93;;;8.57;;
18194;SDS011;9223;50.988;3.162;2024-03-06T12:36:15;8.20;;;7.25;;
18194;SDS011;9223;50.988;3.162;2024-03-06T12:42:19;13.18;;;8.60;;
18194;SDS011;9223;50.988;3.162;2024-03-06T12:48:24;10.48;;;8.35;;
18194;SDS011;9223;50.988;3.162;2024-03-06T12:54:30;12.37;;;11.07;;
18194;SDS011;9223;50.988;3.162;2024-03-06T13:00:34;13.15;;;9.48;;
18194;SDS011;9223;50.988;3.162;2024-03-06T13:06:39;8.98;;;6.57;;
18194;SDS011;9223;50.988;3.162;2024-03-06T13:12:43;8.13;;;7.10;;
18194;SDS011;9223;50.988;3.162;2024-03-06T13:18:47;7.93;;;6.80;;
18194;SDS011;9223;50.988;3.162;2024-03-06T13:24:52;10.00;;;6.60;;
18194;SDS011;9223;50.988;3.162;2024-03-06T13:30:58;7.50;;;6.22;;
18194;SDS011;9223;50.988;3.162;2024-03-06T13:37:01;6.13;;;5.53;;
18194;SDS011;9223;50.988;3.162;2024-03-06T13:43:06;8.23;;;6.85;;
18194;SDS011;9223;50.988;3.162;2024-03-06T13:49:33;7.75;;;5.97;;
18194;SDS011;9223;50.988;3.162;2024-03-06T13:55:35;7.63;;;5.00;;
18194;SDS011;9223;50.988;3.162;2024-03-06T14:01:40;6.82;;;4.50;;
18194;SDS011;9223;50.988;3.162;2024-03-06T14:07:45;6.68;;;5.53;;
18194;SDS011;9223;50.988;3.162;2024-03-06T14:13:51;8.32;;;5.55;;
18194;SDS011;9223;50.988;3.162;2024-03-06T14:19:57;7.70;;;5.70;;
18194;SDS011;9223;50.988;3.162;2024-03-06T14:26:02;9.23;;;5.70;;
18194;SDS011;9223;50.988;3.162;2024-03-06T14:32:05;7.28;;;5.40;;
18194;SDS011;9223;50.988;3.162;2024-03-06T14:38:12;7.22;;;5.80;;
18194;SDS011;9223;50.988;3.162;2024-03-06T14:44:15;6.70;;;6.00;;
18194;SDS011;9223;50.988;3.162;2024-03-06T14:50:19;7.43;;;5.05;;
18194;SDS011;9223;50.988;3.162;2024-03-06T14:56:24;6.75;;;5.30;;
18194;SDS011;9223;50.988;3.162;2024-03-06T15:02:28;5.80;;;4.85;;
18194;SDS011;9223;50.988;3.162;2024-03-06T15:08:33;8.85;;;4.85;;
18194;SDS011;9223;50.988;3.162;2024-03-06T15:14:41;6.35;;;4.70;;
18194;SDS011;9223;50.988;3.162;2024-03-06T15:20:50;6.47;;;4.90;;
18194;SDS011;9223;50.988;3.162;2024-03-06T15:26:54;7.47;;;4.72;;
18194;SDS011;9223;50.988;3.162;2024-03-06T15:33:00;4.78;;;4.30;;
18194;SDS011;9223;50.988;3.162;2024-03-06T15:39:06;2.92;;;2.15;;
18194;SDS011;9223;50.988;3.162;2024-03-06T15:45:11;1.52;;;1.00;;
18194;SDS011;9223;50.988;3.162;2024-03-06T15:51:17;1.92;;;1.20;;
18194;SDS011;9223;50.988;3.162;2024-03-06T15:57:21;2.05;;;1.73;;
18194;SDS011;9223;50.988;3.162;2024-03-06T16:03:25;4.70;;;2.03;;
18194;SDS011;9223;50.988;3.162;2024-03-06T16:09:29;3.65;;;2.60;;
18194;SDS011;9223;50.988;3.162;2024-03-06T16:15:33;7.47;;;3.97;;
18194;SDS011;9223;50.988;3.162;2024-03-06T16:21:37;4.28;;;3.20;;
18194;SDS011;9223;50.988;3.162;2024-03-06T16:27:43;2.95;;;2.60;;
18194;SDS011;9223;50.988;3.162;2024-03-06T16:33:48;5.28;;;2.80;;
18194;SDS011;9223;50.988;3.162;2024-03-06T16:39:56;5.07;;;3.10;;
18194;SDS011;9223;50.988;3.162;2024-03-06T16:46:03;4.60;;;3.53;;
18194;SDS011;9223;50.988;3.162;2024-03-06T16:52:08;7.75;;;4.05;;
18194;SDS011;9223;50.988;3.162;2024-03-06T16:58:15;5.18;;;4.28;;
18194;SDS011;9223;50.988;3.162;2024-03-06T17:04:21;8.75;;;4.13;;
18194;SDS011;9223;50.988;3.162;2024-03-06T17:10:25;8.38;;;4.95;;
18194;SDS011;9223;50.988;3.162;2024-03-06T17:16:31;7.25;;;5.28;;
18194;SDS011;9223;50.988;3.162;2024-03-06T17:22:37;7.60;;;5.28;;
18194;SDS011;9223;50.988;3.162;2024-03-06T17:28:42;9.25;;;6.30;;
18194;SDS011;9223;50.988;3.162;2024-03-06T17:34:51;10.15;;;6.28;;
18194;SDS011;9223;50.988;3.162;2024-03-06T17:41:01;9.38;;;6.03;;
18194;SDS011;9223;50.988;3.162;2024-03-06T17:47:06;9.30;;;6.55;;
18194;SDS011;9223;50.988;3.162;2024-03-06T17:53:10;10.55;;;7.13;;
18194;SDS011;9223;50.988;3.162;2024-03-06T17:59:16;12.00;;;8.75;;
18194;SDS011;9223;50.988;3.162;2024-03-06T18:05:21;20.20;;;10.27;;
18194;SDS011;9223;50.988;3.162;2024-03-06T18:11:26;10.05;;;6.93;;
18194;SDS011;9223;50.988;3.162;2024-03-06T18:17:32;17.50;;;11.52;;
18194;SDS011;9223;50.988;3.162;2024-03-06T18:23:36;12.40;;;8.90;;
18194;SDS011;9223;50.988;3.162;2024-03-06T18:29:42;10.85;;;7.32;;
18194;SDS011;9223;50.988;3.162;2024-03-06T18:35:48;13.77;;;8.27;;
18194;SDS011;9223;50.988;3.162;2024-03-06T18:41:53;12.35;;;8.15;;
18194;SDS011;9223;50.988;3.162;2024-03-06T18:48:12;12.07;;;8.18;;
18194;SDS011;9223;50.988;3.162;2024-03-06T18:54:17;14.52;;;9.63;;
18194;SDS011;9223;50.988;3.162;2024-03-06T19:00:22;15.35;;;9.32;;
18194;SDS011;9223;50.988;3.162;2024-03-06T19:06:26;16.73;;;11.20;;
18194;SDS011;9223;50.988;3.162;2024-03-06T19:12:32;13.57;;;9.60;;
18194;SDS011;9223;50.988;3.162;2024-03-06T19:18:36;14.77;;;11.13;;
18194;SDS011;9223;50.988;3.162;2024-03-06T19:24:41;17.88;;;11.55;;
18194;SDS011;9223;50.988;3.162;2024-03-06T19:30:49;17.95;;;11.05;;
18194;SDS011;9223;50.988;3.162;2024-03-06T19:36:53;16.05;;;10.80;;
18194;SDS011;9223;50.988;3.162;2024-03-06T19:42:59;16.98;;;12.60;;
18194;SDS011;9223;50.988;3.162;2024-03-06T19:49:05;16.55;;;12.93;;
18194;SDS011;9223;50.988;3.162;2024-03-06T19:55:09;15.98;;;11.85;;
18194;SDS011;9223;50.988;3.162;2024-03-06T20:01:14;18.20;;;12.52;;
18194;SDS011;9223;50.988;3.162;2024-03-06T20:07:19;20.25;;;12.27;;
18194;SDS011;9223;50.988;3.162;2024-03-06T20:13:23;15.07;;;11.68;;
18194;SDS011;9223;50.988;3.162;2024-03-06T20:19:27;17.05;;;11.70;;
18194;SDS011;9223;50.988;3.162;2024-03-06T20:25:34;16.45;;;12.30;;
18194;SDS011;9223;50.988;3.162;2024-03-06T20:31:41;21.10;;;13.07;;
18194;SDS011;9223;50.988;3.162;2024-03-06T20:37:50;21.98;;;12.77;;
18194;SDS011;9223;50.988;3.162;2024-03-06T20:43:57;24.48;;;13.65;;
18194;SDS011;9223;50.988;3.162;2024-03-06T20:50:01;22.08;;;12.90;;
18194;SDS011;9223;50.988;3.162;2024-03-06T20:56:06;21.10;;;13.73;;
18194;SDS011;9223;50.988;3.162;2024-03-06T21:02:12;24.58;;;14.13;;
18194;SDS011;9223;50.988;3.162;2024-03-06T21:08:17;22.52;;;14.90;;
18194;SDS011;9223;50.988;3.162;2024-03-06T21:14:21;22.17;;;13.65;;
18194;SDS011;9223;50.988;3.162;2024-03-06T21:20:27;23.23;;;14.05;;
18194;SDS011;9223;50.988;3.162;2024-03-06T21:26:31;22.40;;;13.57;;
18194;SDS011;9223;50.988;3.162;2024-03-06T21:32:36;18.65;;;13.32;;
18194;SDS011;9223;50.988;3.162;2024-03-06T21:38:43;23.25;;;14.57;;
18194;SDS011;9223;50.988;3.162;2024-03-06T21:44:47;21.02;;;14.05;;
18194;SDS011;9223;50.988;3.162;2024-03-06T21:50:52;23.88;;;13.90;;
18194;SDS011;9223;50.988;3.162;2024-03-06T21:56:58;22.77;;;14.13;;
18194;SDS011;9223;50.988;3.162;2024-03-06T22:03:06;22.98;;;14.80;;
18194;SDS011;9223;50.988;3.162;2024-03-06T22:09:11;22.75;;;13.63;;
18194;SDS011;9223;50.988;3.162;2024-03-06T22:15:18;20.52;;;13.57;;
18194;SDS011;9223;50.988;3.162;2024-03-06T22:21:22;21.60;;;13.45;;
18194;SDS011;9223;50.988;3.162;2024-03-06T22:27:26;23.23;;;13.80;;
18194;SDS011;9223;50.988;3.162;2024-03-06T22:33:32;21.02;;;14.35;;
18194;SDS011;9223;50.988;3.162;2024-03-06T22:39:37;19.83;;;13.02;;
18194;SDS011;9223;50.988;3.162;2024-03-06T22:45:42;20.10;;;13.27;;
18194;SDS011;9223;50.988;3.162;2024-03-06T22:51:48;21.92;;;13.90;;
18194;SDS011;9223;50.988;3.162;2024-03-06T22:57:54;24.60;;;14.45;;
18194;SDS011;9223;50.988;3.162;2024-03-06T23:04:01;22.52;;;14.30;;
18194;SDS011;9223;50.988;3.162;2024-03-06T23:10:07;20.30;;;13.75;;
18194;SDS011;9223;50.988;3.162;2024-03-06T23:16:12;23.92;;;14.82;;
18194;SDS011;9223;50.988;3.162;2024-03-06T23:22:16;26.70;;;15.93;;
18194;SDS011;9223;50.988;3.162;2024-03-06T23:28:21;27.48;;;16.80;;
18194;SDS011;9223;50.988;3.162;2024-03-06T23:34:25;29.42;;;16.83;;
18194;SDS011;9223;50.988;3.162;2024-03-06T23:40:30;25.60;;;15.90;;
18194;SDS011;9223;50.988;3.162;2024-03-06T23:46:35;27.83;;;16.92;;
18194;SDS011;9223;50.988;3.162;2024-03-06T23:52:39;29.67;;;17.00;;
18194;SDS011;9223;50.988;3.162;2024-03-06T23:58:44;27.33;;;17.02;;
